KLAA/LAA METAR and TAF weather

Enter ICAO airport designator
Station Type Date Time Source
KLAA METAR 2019/06/27 09:53 UTC NOAA

KLAA 270953Z AUTO 22016KT 10SM CLR 23/08 A2996 RMK AO2 PK WND 22029/0856 SLP086 T02280078


Station Type Date Time Source
KLAA Decoded METAR 2019/06/27 09:53 UTC NOAA

LAMAR MUNICIPAL AIRPORT, CO, United States (KLAA) 38-04N 102-41W 1119M
Jun 27, 2019 - 05:53 AM EDT / 2019.06.27 0953 UTC
Wind: from the SW (220 degrees) at 18 MPH (16 KT):0
Visibility: 10 mile(s):0
Sky conditions: clear
Temperature: 73.0 F (22.8 C)
Dew Point: 46.0 F (7.8 C)
Relative Humidity: 38%
Pressure (altimeter): 29.96 in. Hg (1014 hPa)
ob: KLAA 270953Z AUTO 22016KT 10SM CLR 23/08 A2996 RMK AO2 PK WND 22029/0856 SLP086 T02280078
cycle: 10

Station Type Date Time Source
KLAA TAF UTC NOAA

Error!

Example: see airport list